Time;durP1;ratioP1;P1;durP2;ratioP2;P2;SDS_P1;SDS_P2;PMS_P1;PMS_P2;Temp;Humidity;BMP_temperature;BMP_pressure;BME280_temperature;BME280_humidity;BME280_pressure;Samples;Min_cycle;Max_cycle;Signal;HPM_P1;HPM_P2
2023/05/03 00:01:31;;;;;;;14.07;12.80;;;7.70;99.90;;;;;;5022290;28;20744;-77
2023/05/03 00:04:00;;;;;;;14.80;13.40;;;7.60;99.90;;;;;;5004106;28;20672;-77
2023/05/03 00:06:27;;;;;;;14.97;13.57;;;7.60;99.90;;;;;;5021721;28;20208;-76
2023/05/03 00:08:53;;;;;;;14.47;13.17;;;7.60;99.90;;;;;;5021875;28;20569;-77
2023/05/03 00:11:20;;;;;;;15.17;13.67;;;7.60;99.90;;;;;;5004418;28;20225;-77
2023/05/03 00:13:47;;;;;;;14.10;12.90;;;7.60;99.90;;;;;;5021577;28;20200;-77
2023/05/03 00:16:14;;;;;;;14.63;13.27;;;7.50;99.90;;;;;;5021897;28;20188;-78
2023/05/03 00:18:41;;;;;;;14.40;13.10;;;7.50;99.90;;;;;;5004736;28;20220;-77
2023/05/03 00:21:09;;;;;;;13.47;12.27;;;7.40;99.90;;;;;;5004368;28;20211;-76
2023/05/03 00:23:36;;;;;;;13.40;12.10;;;7.40;99.90;;;;;;5012111;28;20247;-77
2023/05/03 00:26:02;;;;;;;14.20;12.90;;;7.40;99.90;;;;;;5022099;28;20224;-77
2023/05/03 00:28:29;;;;;;;14.30;12.90;;;7.40;99.90;;;;;;5003932;28;20220;-78
2023/05/03 00:30:56;;;;;;;13.47;12.20;;;7.40;99.90;;;;;;5004629;28;20253;-77
2023/05/03 00:33:23;;;;;;;14.70;13.20;;;7.30;99.90;;;;;;5021160;28;20568;-77
2023/05/03 00:35:50;;;;;;;14.37;12.93;;;7.30;99.90;;;;;;5003430;28;20688;-76
2023/05/03 00:38:18;;;;;;;14.57;13.20;;;7.30;99.90;;;;;;5035239;28;20218;-76
2023/05/03 00:40:45;;;;;;;14.13;12.83;;;7.20;99.90;;;;;;5021635;28;20208;-77
2023/05/03 00:43:13;;;;;;;13.80;12.50;;;7.20;99.90;;;;;;5004264;28;20221;-77
2023/05/03 00:45:40;;;;;;;14.43;13.03;;;7.20;99.90;;;;;;5003579;28;20228;-76
2023/05/03 00:48:07;;;;;;;14.57;13.33;;;7.20;99.90;;;;;;5009428;28;20223;-77
2023/05/03 00:50:35;;;;;;;14.63;12.23;;;7.20;99.90;;;;;;5020570;28;20212;-77
2023/05/03 00:53:02;;;;;;;14.60;13.33;;;7.10;99.90;;;;;;5008414;28;20222;-76
2023/05/03 00:55:31;;;;;;;14.70;13.30;;;7.10;99.90;;;;;;5004489;28;20596;-77
2023/05/03 00:57:58;;;;;;;13.90;12.70;;;7.10;99.90;;;;;;5020543;28;20209;-77
2023/05/03 01:00:25;;;;;;;14.60;12.80;;;7.00;99.90;;;;;;5000503;28;20266;-77
2023/05/03 01:02:52;;;;;;;14.57;13.27;;;7.00;99.90;;;;;;5019906;28;20211;-77
2023/05/03 01:05:21;;;;;;;14.07;12.87;;;7.00;99.90;;;;;;5002226;28;20229;-77
2023/05/03 01:07:58;;;;;;;14.67;13.20;;;7.00;99.90;;;;;;5018701;28;20299;-77
2023/05/03 01:10:36;;;;;;;14.47;13.17;;;6.90;99.90;;;;;;5001842;28;20588;-77
2023/05/03 01:13:09;;;;;;;15.03;13.63;;;6.90;99.90;;;;;;5001211;28;20226;-77
2023/05/03 01:15:47;;;;;;;14.47;12.93;;;6.90;99.90;;;;;;5010730;28;20562;-78
2023/05/03 01:18:18;;;;;;;15.57;13.90;;;6.80;99.90;;;;;;5021274;28;20237;-78
2023/05/03 01:20:49;;;;;;;14.20;13.00;;;6.80;99.90;;;;;;5008902;28;20211;-77
2023/05/03 01:23:28;;;;;;;14.83;13.60;;;6.70;99.90;;;;;;5010248;28;20212;-77
2023/05/03 01:25:56;;;;;;;15.10;13.60;;;6.80;99.90;;;;;;5019210;28;20252;-76
2023/05/03 01:28:23;;;;;;;13.87;12.77;;;6.70;99.90;;;;;;5004310;28;20649;-77
2023/05/03 01:30:52;;;;;;;15.17;13.80;;;6.70;99.90;;;;;;5033670;28;20207;-77
2023/05/03 01:33:25;;;;;;;14.03;12.70;;;6.70;99.90;;;;;;5000401;28;20205;-77
2023/05/03 01:35:56;;;;;;;12.83;11.83;;;6.70;99.90;;;;;;5017990;28;20202;-76
2023/05/03 01:38:23;;;;;;;13.97;12.77;;;6.70;99.90;;;;;;5007113;28;20652;-77
2023/05/03 01:40:53;;;;;;;14.67;13.37;;;6.70;99.90;;;;;;5000641;28;20207;-77
2023/05/03 01:43:24;;;;;;;14.37;13.17;;;6.70;99.90;;;;;;5026948;28;20199;-77
2023/05/03 01:45:51;;;;;;;15.00;13.67;;;6.60;99.90;;;;;;5000232;28;20211;-77
2023/05/03 01:48:19;;;;;;;14.63;13.23;;;6.60;99.90;;;;;;5003531;28;20226;-78
2023/05/03 01:50:46;;;;;;;14.40;13.03;;;6.60;99.90;;;;;;5017864;28;20208;-77
2023/05/03 01:53:13;;;;;;;14.33;13.00;;;6.60;99.90;;;;;;5018219;28;20206;-76
2023/05/03 01:55:39;;;;;;;15.37;13.97;;;6.50;99.90;;;;;;5018036;28;20253;-77
2023/05/03 01:58:06;;;;;;;14.93;13.53;;;6.50;99.90;;;;;;5000248;28;20223;-77
2023/05/03 02:00:34;;;;;;;15.03;13.83;;;6.40;99.90;;;;;;4999849;28;20221;-77
2023/05/03 02:03:01;;;;;;;16.00;14.00;;;6.40;99.90;;;;;;5018100;28;20558;-77
2023/05/03 02:05:28;;;;;;;14.43;13.03;;;6.40;99.90;;;;;;5029414;28;20628;-77
2023/05/03 02:07:55;;;;;;;14.60;13.30;;;6.40;99.90;;;;;;5002793;28;20246;-77
2023/05/03 02:10:21;;;;;;;14.87;13.47;;;6.40;99.90;;;;;;5000414;28;20228;-77
2023/05/03 02:12:48;;;;;;;15.00;13.70;;;6.40;99.90;;;;;;5018096;28;20195;-77
2023/05/03 02:15:17;;;;;;;13.67;12.47;;;6.30;99.90;;;;;;4999641;28;20655;-77
2023/05/03 02:17:46;;;;;;;14.47;13.20;;;6.40;99.90;;;;;;5017941;28;20206;-77
2023/05/03 02:20:13;;;;;;;15.20;13.90;;;6.40;99.90;;;;;;4999838;28;20203;-76
2023/05/03 02:22:39;;;;;;;14.60;13.40;;;6.40;99.90;;;;;;5000412;28;20202;-77
2023/05/03 02:25:07;;;;;;;14.53;13.17;;;6.40;99.90;;;;;;5003848;28;20253;-77
2023/05/03 02:27:34;;;;;;;14.43;13.13;;;6.30;99.90;;;;;;4999560;28;20328;-77
2023/05/03 02:30:01;;;;;;;13.33;12.17;;;6.30;99.90;;;;;;4999912;28;20304;-77
2023/05/03 02:32:28;;;;;;;15.13;13.83;;;6.30;99.90;;;;;;5024839;28;20200;-78
2023/05/03 02:34:56;;;;;;;14.40;13.10;;;6.30;99.90;;;;;;5016917;28;20194;-77
2023/05/03 02:37:24;;;;;;;15.63;14.10;;;6.30;99.90;;;;;;5017526;28;20638;-77
2023/05/03 02:39:52;;;;;;;15.53;14.13;;;6.30;99.90;;;;;;4999217;28;20210;-77
2023/05/03 02:42:19;;;;;;;15.40;13.93;;;6.30;99.90;;;;;;4997949;28;20265;-77
2023/05/03 02:44:47;;;;;;;14.53;13.23;;;6.30;99.90;;;;;;4998556;28;20567;-77
2023/05/03 02:47:14;;;;;;;15.10;13.73;;;6.40;99.90;;;;;;4997595;28;20676;-76
2023/05/03 02:49:42;;;;;;;14.70;13.37;;;6.30;99.90;;;;;;5007417;28;20225;-78
2023/05/03 02:52:11;;;;;;;14.47;13.33;;;6.30;99.90;;;;;;5012156;28;20198;-78
2023/05/03 02:54:38;;;;;;;15.13;13.73;;;6.30;99.90;;;;;;5003461;28;20205;-80
2023/05/03 02:57:11;;;;;;;15.13;13.73;;;6.30;99.90;;;;;;4983633;28;20225;-80
2023/05/03 02:59:38;;;;;;;14.27;13.07;;;6.30;99.90;;;;;;4994932;28;20199;-79
2023/05/03 03:02:04;;;;;;;15.03;13.67;;;6.30;99.90;;;;;;4995469;28;20203;-80
2023/05/03 03:04:33;;;;;;;15.30;13.87;;;6.40;99.90;;;;;;4994923;28;20204;-79
2023/05/03 03:07:00;;;;;;;14.77;13.47;;;6.40;99.90;;;;;;4994916;28;20226;-80
2023/05/03 03:09:29;;;;;;;14.57;13.37;;;6.30;99.90;;;;;;5012842;28;20193;-80
2023/05/03 03:11:56;;;;;;;14.17;12.97;;;6.30;99.90;;;;;;5007128;28;20197;-81
2023/05/03 03:14:23;;;;;;;16.40;14.50;;;6.30;99.90;;;;;;5011630;28;20198;-80
2023/05/03 03:16:51;;;;;;;15.80;14.30;;;6.30;99.90;;;;;;4997289;28;20187;-80
2023/05/03 03:19:18;;;;;;;15.33;14.03;;;6.30;99.90;;;;;;4999009;28;20195;-79
2023/05/03 03:21:45;;;;;;;15.37;14.17;;;6.20;99.90;;;;;;4994966;28;20199;-79
2023/05/03 03:24:12;;;;;;;15.40;14.00;;;6.30;99.90;;;;;;5012019;28;20199;-78
2023/05/03 03:26:41;;;;;;;15.43;14.03;;;6.20;99.90;;;;;;4994482;28;20700;-80
2023/05/03 03:29:09;;;;;;;15.57;14.17;;;6.20;99.90;;;;;;5025155;28;20209;-80
2023/05/03 03:31:40;;;;;;;15.10;13.67;;;6.20;99.90;;;;;;4995091;28;20194;-79
2023/05/03 03:34:06;;;;;;;14.97;13.77;;;6.20;99.90;;;;;;4994864;28;20265;-80
2023/05/03 03:36:33;;;;;;;14.77;13.37;;;6.10;99.90;;;;;;5012623;28;20203;-79
2023/05/03 03:39:00;;;;;;;15.90;14.40;;;6.10;99.90;;;;;;4996898;28;20233;-78
2023/05/03 03:41:27;;;;;;;15.13;13.83;;;6.00;99.90;;;;;;5000236;28;20213;-78
2023/05/03 03:43:57;;;;;;;15.73;14.13;;;6.00;99.90;;;;;;4999000;28;20241;-77
2023/05/03 03:46:25;;;;;;;17.63;15.87;;;6.00;99.90;;;;;;4998734;28;20241;-77
2023/05/03 03:48:55;;;;;;;16.10;14.47;;;6.00;99.90;;;;;;5014473;28;20363;-76
2023/05/03 03:51:24;;;;;;;15.30;14.10;;;6.00;99.90;;;;;;5014957;28;20290;-77
2023/05/03 03:53:51;;;;;;;15.33;13.97;;;6.00;99.90;;;;;;5015193;28;20218;-78
2023/05/03 03:56:20;;;;;;;16.23;14.93;;;6.00;99.90;;;;;;4999206;28;20261;-77
2023/05/03 03:58:49;;;;;;;15.80;14.50;;;6.00;99.90;;;;;;5006729;28;20229;-78
2023/05/03 04:01:17;;;;;;;16.50;15.10;;;6.00;99.90;;;;;;5000461;28;20562;-78
2023/05/03 04:03:46;;;;;;;15.70;14.23;;;6.00;99.90;;;;;;5017247;28;20206;-77
2023/05/03 04:06:12;;;;;;;15.43;14.13;;;6.10;99.90;;;;;;5030205;28;20397;-78
2023/05/03 04:08:39;;;;;;;16.03;14.73;;;6.00;99.90;;;;;;5006848;28;20258;-77
2023/05/03 04:11:11;;;;;;;16.20;14.80;;;6.10;99.90;;;;;;5001632;28;20571;-78
2023/05/03 04:13:42;;;;;;;16.90;15.37;;;6.10;99.90;;;;;;5013886;28;20232;-78
2023/05/03 04:16:09;;;;;;;16.20;14.80;;;6.10;99.90;;;;;;5007146;28;20561;-77
2023/05/03 04:18:39;;;;;;;16.63;15.23;;;6.10;99.90;;;;;;5007443;28;20248;-77
2023/05/03 04:21:08;;;;;;;16.13;14.83;;;6.20;99.90;;;;;;5002859;28;20636;-78
2023/05/03 04:23:35;;;;;;;16.90;15.40;;;6.20;99.90;;;;;;5000411;28;20202;-77
2023/05/03 04:26:04;;;;;;;16.27;14.97;;;6.30;99.90;;;;;;5006185;28;20205;-77
2023/05/03 04:28:33;;;;;;;16.00;14.43;;;6.40;99.90;;;;;;5002745;28;20226;-77
2023/05/03 04:31:00;;;;;;;16.63;15.23;;;6.50;99.90;;;;;;5002240;28;20203;-77
2023/05/03 04:33:28;;;;;;;17.40;15.90;;;6.60;99.90;;;;;;4996458;28;20580;-77
2023/05/03 04:36:01;;;;;;;17.60;15.97;;;6.60;99.90;;;;;;5006226;28;20585;-77
2023/05/03 04:38:28;;;;;;;18.87;17.07;;;6.80;99.90;;;;;;5002017;28;20229;-78
2023/05/03 04:40:57;;;;;;;18.13;16.33;;;6.90;99.90;;;;;;5010057;28;20211;-77
2023/05/03 04:43:24;;;;;;;18.70;16.90;;;7.00;99.90;;;;;;5008720;28;20216;-77
2023/05/03 04:45:52;;;;;;;18.63;16.83;;;7.00;99.90;;;;;;5033417;28;20199;-78
2023/05/03 04:48:22;;;;;;;17.27;15.83;;;7.10;99.90;;;;;;5012645;28;20219;-77
2023/05/03 04:50:50;;;;;;;17.87;16.37;;;7.30;99.90;;;;;;5024451;28;20731;-78
2023/05/03 04:53:20;;;;;;;17.23;15.83;;;7.30;99.90;;;;;;5010507;28;20641;-78
2023/05/03 04:55:54;;;;;;;15.83;14.63;;;7.50;99.90;;;;;;5021843;28;20203;-78
2023/05/03 04:58:21;;;;;;;17.60;15.90;;;7.50;99.90;;;;;;5013339;28;20212;-77
2023/05/03 05:00:49;;;;;;;17.67;16.27;;;7.60;99.90;;;;;;5006681;28;20266;-79
2023/05/03 05:03:22;;;;;;;17.80;16.30;;;7.70;99.90;;;;;;5018585;28;20193;-77
2023/05/03 05:05:51;;;;;;;17.93;16.30;;;7.80;99.90;;;;;;5013918;28;20204;-78
2023/05/03 05:08:20;;;;;;;17.13;15.67;;;7.90;99.90;;;;;;5037354;28;20219;-78
2023/05/03 05:10:51;;;;;;;18.37;16.77;;;8.00;99.90;;;;;;5008012;28;20268;-79
2023/05/03 05:13:22;;;;;;;18.20;16.53;;;8.00;99.90;;;;;;5012213;28;20211;-78
2023/05/03 05:15:49;;;;;;;17.83;16.23;;;8.20;99.90;;;;;;5015249;28;20197;-78
2023/05/03 05:18:17;;;;;;;18.30;16.50;;;8.30;99.90;;;;;;5023183;28;20208;-78
2023/05/03 05:20:45;;;;;;;18.70;17.10;;;8.30;99.90;;;;;;5015104;28;20629;-79
2023/05/03 05:23:12;;;;;;;18.87;17.27;;;8.40;99.90;;;;;;5019215;28;20639;-80
2023/05/03 05:25:45;;;;;;;18.90;17.27;;;8.40;99.90;;;;;;5014031;28;20201;-79
2023/05/03 05:28:12;;;;;;;16.47;15.03;;;8.40;99.90;;;;;;5017133;28;20220;-80
2023/05/03 05:30:40;;;;;;;15.20;13.80;;;8.50;99.90;;;;;;5015366;28;20205;-78
2023/05/03 05:33:07;;;;;;;14.27;12.97;;;8.60;99.90;;;;;;5009394;28;20199;-79
2023/05/03 05:35:35;;;;;;;12.77;11.43;;;8.70;99.90;;;;;;5012929;28;20220;-80
2023/05/03 05:38:04;;;;;;;16.10;14.73;;;8.80;99.90;;;;;;5014400;28;20304;-80
2023/05/03 05:40:32;;;;;;;17.10;15.70;;;8.90;99.90;;;;;;5021370;28;20744;-80
2023/05/03 05:43:01;;;;;;;17.40;15.87;;;8.90;99.90;;;;;;5030194;28;20196;-79
2023/05/03 05:45:31;;;;;;;16.73;15.43;;;9.00;99.90;;;;;;5012193;28;20197;-79
2023/05/03 05:47:58;;;;;;;17.07;15.47;;;9.00;99.90;;;;;;5024609;28;20219;-79
2023/05/03 05:50:26;;;;;;;15.93;14.63;;;9.10;99.90;;;;;;5023156;28;20193;-79
2023/05/03 05:52:58;;;;;;;14.70;13.30;;;9.20;99.90;;;;;;5030782;28;20280;-80
2023/05/03 05:55:28;;;;;;;13.40;12.33;;;9.20;99.90;;;;;;5013176;28;20201;-79
2023/05/03 05:57:56;;;;;;;14.07;12.77;;;9.20;99.90;;;;;;5017041;28;20217;-80
2023/05/03 06:00:29;;;;;;;14.80;13.30;;;9.30;99.90;;;;;;5017064;28;20704;-80
2023/05/03 06:02:57;;;;;;;14.77;13.47;;;9.30;99.90;;;;;;5017300;28;20197;-80
2023/05/03 06:05:24;;;;;;;14.57;13.27;;;9.40;99.90;;;;;;5012516;28;20250;-79
2023/05/03 06:07:51;;;;;;;14.30;12.90;;;9.40;99.90;;;;;;5004526;28;20292;-78
2023/05/03 06:10:18;;;;;;;14.30;13.03;;;9.50;99.90;;;;;;5016485;28;20202;-80
2023/05/03 06:12:48;;;;;;;15.87;14.20;;;9.50;99.90;;;;;;5016420;28;20224;-80
2023/05/03 06:15:20;;;;;;;15.17;13.97;;;9.60;99.90;;;;;;5015438;28;20227;-80
2023/05/03 06:17:48;;;;;;;17.83;16.23;;;9.70;99.90;;;;;;5008480;28;20220;-81
2023/05/03 06:20:16;;;;;;;18.60;17.03;;;9.80;99.90;;;;;;5039790;28;20193;-81
2023/05/03 06:22:43;;;;;;;19.40;17.80;;;9.90;99.90;;;;;;5005951;28;20260;-79
2023/05/03 06:25:13;;;;;;;18.63;17.03;;;9.90;99.90;;;;;;5006837;28;20204;-81
2023/05/03 06:27:41;;;;;;;19.80;18.10;;;9.90;99.90;;;;;;5012700;28;20249;-79
2023/05/03 06:30:09;;;;;;;18.63;17.13;;;9.90;99.90;;;;;;5014834;28;20189;-79
2023/05/03 06:32:38;;;;;;;21.10;19.07;;;9.90;99.90;;;;;;5008235;28;20724;-78
2023/05/03 06:35:09;;;;;;;22.27;20.47;;;9.90;99.90;;;;;;5039746;28;20208;-80
2023/05/03 06:37:37;;;;;;;21.73;19.83;;;9.90;99.90;;;;;;5009310;28;20228;-80
2023/05/03 06:40:07;;;;;;;20.43;18.70;;;9.90;99.90;;;;;;5040933;28;20654;-79
2023/05/03 06:42:36;;;;;;;20.80;18.80;;;10.00;99.90;;;;;;5008567;28;20248;-80
2023/05/03 06:45:10;;;;;;;21.60;19.63;;;10.10;99.90;;;;;;5003265;28;20202;-80
2023/05/03 06:47:38;;;;;;;21.07;18.93;;;10.20;99.90;;;;;;5030467;22;20299;-80
2023/05/03 06:50:08;;;;;;;19.27;17.67;;;10.20;99.90;;;;;;5025997;28;20770;-80
2023/05/03 06:52:34;;;;;;;19.30;17.77;;;10.30;99.90;;;;;;5013548;28;20619;-79
2023/05/03 06:55:01;;;;;;;18.63;17.03;;;10.40;99.90;;;;;;5015483;28;20198;-81
2023/05/03 06:57:28;;;;;;;21.03;18.93;;;10.50;99.90;;;;;;5012548;28;20719;-80
2023/05/03 06:59:55;;;;;;;17.83;16.33;;;10.40;99.90;;;;;;4995968;28;20211;-78
2023/05/03 07:02:22;;;;;;;19.27;17.53;;;10.20;99.90;;;;;;5014247;28;20226;-78
2023/05/03 07:04:49;;;;;;;18.50;16.97;;;10.20;99.90;;;;;;5006102;28;20203;-78
2023/05/03 07:07:17;;;;;;;17.67;16.17;;;10.30;99.90;;;;;;5004106;28;20211;-78
2023/05/03 07:09:44;;;;;;;18.10;16.57;;;10.40;99.90;;;;;;5007259;28;20682;-79
2023/05/03 07:12:11;;;;;;;17.97;16.47;;;10.60;99.90;;;;;;5006870;28;20683;-78
2023/05/03 07:14:38;;;;;;;18.07;16.27;;;10.70;99.90;;;;;;5006168;28;20200;-77
2023/05/03 07:17:05;;;;;;;18.63;16.83;;;10.80;99.90;;;;;;5012658;28;20199;-78
2023/05/03 07:19:32;;;;;;;14.10;12.70;;;11.00;99.90;;;;;;5012483;28;20701;-79
2023/05/03 07:21:59;;;;;;;14.03;12.27;;;11.30;99.90;;;;;;5011924;28;20205;-78
2023/05/03 07:24:27;;;;;;;15.37;13.87;;;11.50;99.90;;;;;;5004907;28;20235;-78
2023/05/03 07:26:54;;;;;;;15.63;13.40;;;11.70;99.90;;;;;;5012170;28;20573;-78
2023/05/03 07:29:21;;;;;;;14.50;13.00;;;11.70;99.90;;;;;;5002567;28;20224;-78
2023/05/03 07:31:48;;;;;;;15.10;13.67;;;11.90;99.90;;;;;;5012335;28;20199;-78
2023/05/03 07:34:15;;;;;;;14.60;13.20;;;12.10;99.90;;;;;;5008493;28;20220;-77
2023/05/03 07:36:42;;;;;;;13.07;11.67;;;12.30;99.90;;;;;;5004168;28;20208;-76
2023/05/03 07:39:09;;;;;;;15.03;13.53;;;12.40;99.90;;;;;;5000339;28;20290;-77
2023/05/03 07:41:37;;;;;;;14.10;12.53;;;12.30;99.90;;;;;;5011599;28;20203;-76
2023/05/03 07:44:04;;;;;;;13.80;12.40;;;12.20;99.90;;;;;;4993793;28;20579;-76
2023/05/03 07:46:34;;;;;;;14.03;12.53;;;12.20;99.90;;;;;;5011802;28;20287;-77
2023/05/03 07:49:01;;;;;;;13.33;11.90;;;12.20;99.90;;;;;;5011418;28;20274;-77
2023/05/03 07:51:28;;;;;;;11.73;10.17;;;12.30;99.90;;;;;;4994094;28;20200;-77
2023/05/03 07:53:55;;;;;;;12.67;11.37;;;12.40;99.90;;;;;;5011157;28;20221;-76
2023/05/03 07:56:22;;;;;;;15.37;13.77;;;12.60;99.90;;;;;;5011616;28;20704;-77
2023/05/03 07:58:50;;;;;;;14.80;13.30;;;12.20;99.90;;;;;;5011348;28;20311;-76
2023/05/03 08:01:17;;;;;;;14.63;13.13;;;12.10;99.90;;;;;;4993960;28;20751;-76
2023/05/03 08:03:44;;;;;;;14.20;12.80;;;12.60;99.90;;;;;;4993446;28;20204;-77
2023/05/03 08:06:11;;;;;;;12.63;11.03;;;13.20;99.90;;;;;;4997250;28;20196;-76
2023/05/03 08:08:38;;;;;;;12.87;10.80;;;14.10;99.90;;;;;;4996103;28;20227;-77
2023/05/03 08:11:05;;;;;;;10.47;8.93;;;14.20;99.90;;;;;;4990855;28;20198;-77
2023/05/03 08:13:32;;;;;;;12.03;9.00;;;14.60;99.90;;;;;;4997778;28;20682;-77
2023/05/03 08:16:00;;;;;;;11.37;10.13;;;15.40;99.90;;;;;;5011765;28;20195;-77
2023/05/03 08:18:27;;;;;;;10.87;8.60;;;15.80;99.90;;;;;;5001712;28;20216;-79
2023/05/03 08:20:54;;;;;;;10.70;9.53;;;16.40;99.90;;;;;;5005313;28;20300;-77
2023/05/03 08:23:21;;;;;;;10.43;9.00;;;16.50;99.90;;;;;;5000593;28;20651;-77
2023/05/03 08:25:48;;;;;;;12.37;8.67;;;16.50;99.90;;;;;;5015215;28;20208;-77
2023/05/03 08:28:15;;;;;;;9.30;8.17;;;16.90;99.90;;;;;;5015276;28;20255;-77
2023/05/03 08:30:42;;;;;;;10.33;8.67;;;17.30;99.90;;;;;;5015048;28;20278;-77
2023/05/03 08:33:10;;;;;;;11.23;8.23;;;17.30;99.90;;;;;;5015048;28;20244;-77
2023/05/03 08:35:37;;;;;;;9.50;8.03;;;17.70;99.90;;;;;;5018532;28;20204;-78
2023/05/03 08:38:04;;;;;;;10.57;9.20;;;17.80;99.90;;;;;;5015116;28;20219;-77
2023/05/03 08:40:34;;;;;;;8.77;7.90;;;17.90;99.90;;;;;;5015157;28;20204;-77
2023/05/03 08:43:07;;;;;;;10.27;9.27;;;18.00;99.90;;;;;;5014657;28;20199;-77
2023/05/03 08:45:34;;;;;;;10.90;9.80;;;17.60;99.90;;;;;;4997330;28;20215;-78
2023/05/03 08:48:03;;;;;;;10.30;9.30;;;17.30;99.90;;;;;;4997246;28;20791;-77
2023/05/03 08:50:36;;;;;;;12.43;9.50;;;17.20;99.90;;;;;;4997485;28;20299;-77
2023/05/03 08:53:03;;;;;;;9.80;8.80;;;17.40;99.90;;;;;;5015305;28;20250;-79
2023/05/03 08:55:30;;;;;;;10.40;9.40;;;17.60;99.90;;;;;;5014224;28;20271;-78
2023/05/03 08:57:57;;;;;;;10.87;9.77;;;17.90;99.90;;;;;;5014100;28;20703;-77
2023/05/03 09:00:28;;;;;;;10.50;9.40;;;17.70;99.90;;;;;;5014815;28;20258;-78
2023/05/03 09:02:55;;;;;;;11.93;9.60;;;18.10;99.90;;;;;;5014132;28;20214;-77
2023/05/03 09:05:34;;;;;;;10.33;9.33;;;18.30;99.90;;;;;;5017718;28;20193;-78
2023/05/03 09:08:02;;;;;;;8.27;7.43;;;18.20;99.90;;;;;;5006128;28;20602;-77
2023/05/03 09:10:29;;;;;;;8.40;7.60;;;18.70;99.90;;;;;;5014167;28;20676;-77
2023/05/03 09:12:59;;;;;;;11.00;9.90;;;19.00;99.90;;;;;;4996286;28;20258;-77
2023/05/03 09:15:28;;;;;;;11.33;10.03;;;19.10;99.90;;;;;;5013919;28;20227;-78
2023/05/03 09:18:07;;;;;;;11.03;9.93;;;19.00;99.90;;;;;;5013661;28;20217;-78
2023/05/03 09:20:36;;;;;;;11.60;10.50;;;19.00;99.90;;;;;;5013072;28;20219;-78
2023/05/03 09:23:03;;;;;;;11.13;10.03;;;18.90;99.90;;;;;;5004421;28;20287;-77
2023/05/03 09:25:41;;;;;;;13.13;12.03;;;19.10;99.90;;;;;;5016630;28;20192;-78
2023/05/03 09:28:08;;;;;;;13.43;12.43;;;19.20;99.90;;;;;;5013362;28;20212;-77
2023/05/03 09:30:35;;;;;;;13.73;12.47;;;19.30;99.90;;;;;;4996383;28;20204;-78
2023/05/03 09:33:03;;;;;;;12.87;11.57;;;19.30;99.90;;;;;;5013547;28;20208;-77
2023/05/03 09:35:31;;;;;;;14.77;13.47;;;18.90;99.90;;;;;;5017478;28;20189;-78
2023/05/03 09:37:59;;;;;;;14.20;13.00;;;19.30;99.90;;;;;;5013480;28;20720;-78
2023/05/03 09:40:26;;;;;;;17.80;16.30;;;19.60;99.90;;;;;;4996122;28;20505;-84
2023/05/03 09:43:10;;;;;;;14.77;13.57;;;19.00;99.90;;;;;;4998516;28;20224;-81
2023/05/03 09:45:37;;;;;;;15.00;13.73;;;19.10;99.90;;;;;;4997332;28;20295;-81
2023/05/03 09:48:05;;;;;;;13.77;12.57;;;19.10;99.90;;;;;;5003866;28;20213;-83
2023/05/03 09:50:33;;;;;;;10.50;9.60;;;19.20;99.90;;;;;;4997380;28;20232;-81
2023/05/03 09:53:04;;;;;;;12.33;11.13;;;19.70;99.90;;;;;;4996707;28;20215;-81
2023/05/03 09:55:35;;;;;;;14.77;13.37;;;19.70;99.90;;;;;;5001183;28;20201;-80
2023/05/03 09:58:05;;;;;;;13.53;12.50;;;19.40;99.90;;;;;;4989296;28;20275;-79
2023/05/03 10:00:35;;;;;;;15.17;13.93;;;18.90;99.90;;;;;;5000980;28;20219;-80
2023/05/03 10:03:06;;;;;;;14.23;13.03;;;18.90;99.90;;;;;;5017258;28;20200;-80
2023/05/03 10:05:36;;;;;;;12.70;11.43;;;19.40;99.90;;;;;;5003599;28;20655;-81
2023/05/03 10:08:05;;;;;;;10.37;9.37;;;19.70;99.90;;;;;;5015941;28;20718;-80
2023/05/03 10:10:34;;;;;;;11.83;10.63;;;19.50;99.90;;;;;;5001972;28;20211;-80
2023/05/03 10:13:02;;;;;;;12.37;11.37;;;19.50;99.90;;;;;;5014756;28;20219;-80
2023/05/03 10:15:30;;;;;;;13.47;12.27;;;19.50;99.90;;;;;;5014028;28;20271;-80
2023/05/03 10:17:59;;;;;;;15.27;14.07;;;19.60;99.90;;;;;;4996462;28;20264;-80
2023/05/03 10:20:33;;;;;;;10.03;9.17;;;19.60;99.90;;;;;;4996376;28;20251;-79
2023/05/03 10:23:12;;;;;;;9.77;8.87;;;19.50;99.90;;;;;;4996057;28;20204;-80
2023/05/03 10:25:40;;;;;;;10.67;9.67;;;19.80;99.90;;;;;;5014574;28;20215;-80
2023/05/03 10:28:08;;;;;;;10.60;9.67;;;19.40;99.90;;;;;;5012319;28;20224;-79
2023/05/03 10:30:36;;;;;;;9.77;8.77;;;19.40;99.90;;;;;;4995869;28;20431;-80
2023/05/03 10:33:32;;;;;;;10.47;8.77;;;19.40;99.90;;;;;;5013396;28;20200;-80
2023/05/03 10:36:04;;;;;;;9.93;9.03;;;19.40;99.90;;;;;;4968501;28;20518;-79
2023/05/03 10:38:32;;;;;;;14.13;11.10;;;19.50;99.90;;;;;;5013459;28;20283;-79
2023/05/03 10:41:02;;;;;;;15.03;13.83;;;18.90;99.90;;;;;;4990235;28;20212;-79
2023/05/03 10:43:42;;;;;;;11.83;10.67;;;18.80;99.90;;;;;;4995894;28;20654;-80
2023/05/03 10:46:29;;;;;;;10.77;9.67;;;18.80;99.90;;;;;;4996120;28;20298;-79
2023/05/03 10:49:21;;;;;;;15.13;13.80;;;18.70;99.90;;;;;;4996031;28;20224;-79
2023/05/03 10:51:48;;;;;;;12.43;11.23;;;18.40;99.90;;;;;;4989532;28;20208;-80
2023/05/03 10:54:18;;;;;;;12.40;11.23;;;18.30;99.90;;;;;;4996615;28;20196;-80
2023/05/03 10:56:49;;;;;;;11.17;10.27;;;18.60;99.90;;;;;;5016807;28;20264;-79
2023/05/03 10:59:16;;;;;;;12.57;11.37;;;18.70;99.90;;;;;;4995136;28;20661;-80
2023/05/03 11:01:45;;;;;;;13.80;12.47;;;18.60;99.90;;;;;;4995627;28;20298;-80
2023/05/03 11:04:17;;;;;;;12.30;11.03;;;18.70;99.90;;;;;;4995483;28;20208;-80
2023/05/03 11:06:48;;;;;;;12.97;11.63;;;18.90;99.90;;;;;;5019849;28;20603;-82
2023/05/03 11:15:25;;;;;;;12.80;11.67;;;19.00;99.90;;;;;;4997206;28;20204;-82
2023/05/03 11:17:52;;;;;;;12.87;11.77;;;18.70;99.90;;;;;;4997602;28;20314;-80
2023/05/03 11:20:19;;;;;;;9.73;8.83;;;18.70;99.90;;;;;;4995533;28;20222;-80
2023/05/03 11:22:46;;;;;;;11.33;10.23;;;18.80;99.90;;;;;;5012778;28;20203;-79
2023/05/03 11:25:15;;;;;;;10.10;8.93;;;18.50;99.90;;;;;;4999756;28;20261;-80
2023/05/03 11:27:42;;;;;;;12.63;11.53;;;18.30;99.90;;;;;;4995138;28;20219;-80
2023/05/03 11:30:09;;;;;;;12.00;10.97;;;18.30;99.90;;;;;;5012323;28;20258;-79
2023/05/03 11:32:37;;;;;;;11.23;10.20;;;18.40;99.90;;;;;;4994590;28;20202;-79
2023/05/03 11:35:06;;;;;;;12.37;11.23;;;18.30;99.90;;;;;;4992990;28;20228;-80
2023/05/03 11:37:33;;;;;;;9.40;8.47;;;18.20;99.90;;;;;;5012330;28;20257;-78
2023/05/03 11:40:00;;;;;;;10.67;8.30;;;18.20;99.90;;;;;;5007338;28;20269;-79
2023/05/03 11:42:28;;;;;;;7.50;6.60;;;18.30;99.90;;;;;;5003490;28;20202;-79
2023/05/03 11:44:55;;;;;;;7.70;6.97;;;18.50;99.90;;;;;;4999760;28;20207;-80
2023/05/03 11:47:22;;;;;;;8.53;7.63;;;18.60;99.90;;;;;;5002368;28;20210;-79
2023/05/03 11:49:52;;;;;;;8.87;7.60;;;18.70;99.90;;;;;;5004086;28;20628;-80
2023/05/03 11:52:22;;;;;;;9.47;6.97;;;18.90;99.90;;;;;;5002872;28;20203;-80
2023/05/03 11:54:48;;;;;;;8.57;7.67;;;18.60;99.90;;;;;;5021848;28;20623;-79
2023/05/03 11:57:15;;;;;;;10.13;6.50;;;18.40;99.90;;;;;;5025418;28;20203;-80
2023/05/03 11:59:44;;;;;;;7.77;6.00;;;18.40;99.90;;;;;;5018866;28;20212;-80
2023/05/03 12:02:13;;;;;;;7.00;6.30;;;18.50;99.90;;;;;;5005693;28;20204;-80
2023/05/03 12:04:42;;;;;;;8.70;6.53;;;18.60;99.90;;;;;;4999840;28;20215;-79
2023/05/03 12:07:10;;;;;;;8.17;6.47;;;18.60;99.90;;;;;;5013980;28;20203;-79
2023/05/03 12:09:37;;;;;;;7.83;6.83;;;18.60;99.90;;;;;;5005287;28;20250;-79
2023/05/03 12:12:04;;;;;;;6.90;6.20;;;18.30;99.90;;;;;;5009603;28;20218;-79
2023/05/03 12:14:58;;;;;;;7.03;5.63;;;18.30;99.90;;;;;;5014802;28;20272;-79
2023/05/03 12:17:35;;;;;;;8.97;8.10;;;18.60;99.90;;;;;;5006030;28;20216;-82
2023/05/03 12:20:16;;;;;;;9.97;7.83;;;18.80;99.90;;;;;;4999491;28;20246;-80
2023/05/03 12:22:43;;;;;;;8.00;7.20;;;18.70;99.90;;;;;;5007140;28;20294;-79
2023/05/03 12:25:09;;;;;;;7.57;6.77;;;18.60;99.90;;;;;;5020352;28;20212;-79
2023/05/03 12:27:36;;;;;;;6.83;5.33;;;18.60;99.90;;;;;;5016377;28;20219;-80
2023/05/03 12:30:06;;;;;;;7.80;6.63;;;18.70;99.90;;;;;;5015601;28;20188;-79
2023/05/03 12:32:33;;;;;;;7.27;5.40;;;18.50;99.90;;;;;;5006589;28;20611;-80
2023/05/03 12:35:00;;;;;;;6.20;5.60;;;18.40;99.90;;;;;;5017125;28;20202;-82
2023/05/03 12:37:26;;;;;;;5.97;5.37;;;18.40;99.90;;;;;;5000232;28;20227;-79
2023/05/03 12:39:53;;;;;;;6.47;5.57;;;18.60;99.90;;;;;;5015177;28;20797;-80
2023/05/03 12:42:20;;;;;;;7.37;5.97;;;18.70;99.90;;;;;;5009100;28;20719;-79
2023/05/03 12:44:47;;;;;;;5.93;5.33;;;18.60;99.90;;;;;;5012872;28;20257;-79
2023/05/03 12:47:15;;;;;;;6.87;5.03;;;18.60;99.90;;;;;;5003885;28;20258;-81
2023/05/03 12:49:42;;;;;;;7.40;4.87;;;18.70;99.90;;;;;;5006608;28;20627;-80